Terminal Aerodrome Forecast
Issued by NWS Upton, NY

Home | Current Version | Previous Version | Text Only | Print | Product List | Glossary On
Versions: 1 2 3 4 5 6 7 8 9 10 11 12 13 14 15 16 17 18 19 20 21 22 23 24 25 26 27 28 29 30
000
FTUS41 KOKX 030200 AAA
TAFEWR
TAF AMD
KEWR 030230Z 0303/0406 31012KT P6SM SKC
     FM030600 32006KT P6SM SCT250
     FM031500 VRB04KT P6SM FEW015 SCT150
     FM031800 16006KT P6SM SCT020 BKN120
     FM032200 16009KT 6SM -SN BKN025 OVC060
     FM040100 18010KT 2SM -SNPL OVC009
     FM040300 19011KT 1SM -FZRA OVC005
     FM040500 19011KT 1SM -RA OVC005=

USA.gov is the U.S. government's official web portal to all federal, state and local government web resources and services.